Time,TemperatureF,DewpointF,PressureIn,WindDirection,WindDirectionDegrees,WindSpeedMPH,WindSpeedGustMPH,Humidity,HourlyPrecipIn,Conditions,Clouds,dailyrainin,SoftwareType,DateUTC
2013-03-24 00:00:00,30.5,27.1,29.85,NNE,23,1.8,1.8,87,0.01,,,0.04,WUHU216HW,2013-03-24 05:00:00,
2013-03-24 00:05:00,30.5,27.1,29.85,NNE,23,1.8,1.8,87,0.01,,,0.04,WUHU216HW,2013-03-24 05:05:00,
2013-03-24 00:30:00,30.7,27.3,29.88,ENE,68,1.1,1.1,87,0.00,,,0.00,WUHU216HW,2013-03-24 05:30:00,
2013-03-24 00:35:00,30.7,27.3,29.88,ENE,68,1.1,1.1,87,0.00,,,0.00,WUHU216HW,2013-03-24 05:35:00,
2013-03-24 00:59:00,30.7,27.0,29.88,North,0,2.9,2.9,86,0.00,,,0.00,WUHU216HW,2013-03-24 05:59:00,
2013-03-24 01:00:00,30.7,27.0,29.88,North,0,2.9,2.9,86,0.00,,,0.00,WUHU216HW,2013-03-24 06:00:00,
2013-03-24 01:05:00,30.7,27.0,29.88,North,0,2.9,2.9,86,0.00,,,0.00,WUHU216HW,2013-03-24 06:05:00,
2013-03-24 01:30:00,30.3,26.9,29.86,NNE,23,1.3,1.3,87,0.01,,,0.00,WUHU216HW,2013-03-24 06:30:00,
2013-03-24 01:35:00,30.3,26.9,29.86,NNE,23,1.3,1.3,87,0.01,,,0.00,WUHU216HW,2013-03-24 06:35:00,
2013-03-24 01:59:00,30.1,26.7,29.84,South,180,2.5,2.5,87,0.01,,,0.01,WUHU216HW,2013-03-24 06:59:00,
2013-03-24 02:00:00,30.1,26.7,29.84,South,180,2.5,2.5,87,0.01,,,0.01,WUHU216HW,2013-03-24 07:00:00,
2013-03-24 02:05:00,30.1,26.7,29.84,South,180,2.5,2.5,87,0.01,,,0.01,WUHU216HW,2013-03-24 07:05:00,
2013-03-24 02:30:00,29.9,26.5,29.83,South,180,1.6,1.6,87,0.00,,,0.01,WUHU216HW,2013-03-24 07:30:00,
2013-03-24 02:35:00,29.9,26.5,29.83,South,180,1.6,1.6,87,0.00,,,0.01,WUHU216HW,2013-03-24 07:35:00,
2013-03-24 02:59:00,29.8,26.4,29.83,South,180,1.8,1.8,87,0.00,,,0.01,WUHU216HW,2013-03-24 07:59:00,
2013-03-24 03:00:00,29.8,26.4,29.83,South,180,1.8,1.8,87,0.00,,,0.01,WUHU216HW,2013-03-24 08:00:00,
2013-03-24 03:05:00,29.8,26.4,29.83,South,180,1.8,1.8,87,0.00,,,0.01,WUHU216HW,2013-03-24 08:05:00,
2013-03-24 03:30:00,29.6,26.4,29.82,South,180,0.7,0.7,88,0.00,,,0.01,WUHU216HW,2013-03-24 08:30:00,
2013-03-24 03:35:00,29.6,26.4,29.82,South,180,0.7,0.7,88,0.00,,,0.01,WUHU216HW,2013-03-24 08:35:00,
2013-03-24 04:00:00,29.2,26.3,29.81,South,180,2.0,2.0,89,0.00,,,0.01,WUHU216HW,2013-03-24 09:00:00,
2013-03-24 04:05:00,29.2,26.3,29.81,South,180,2.0,2.0,89,0.00,,,0.01,WUHU216HW,2013-03-24 09:05:00,
2013-03-24 04:30:00,28.7,25.8,29.82,South,180,1.8,1.8,89,0.00,,,0.01,WUHU216HW,2013-03-24 09:30:00,
2013-03-24 04:35:00,28.7,25.8,29.82,South,180,1.8,1.8,89,0.00,,,0.01,WUHU216HW,2013-03-24 09:35:00,
2013-03-24 05:00:00,28.3,25.7,29.83,South,180,0.9,0.9,90,0.00,,,0.01,WUHU216HW,2013-03-24 10:00:00,
2013-03-24 05:05:00,28.3,25.7,29.83,South,180,0.9,0.9,90,0.00,,,0.01,WUHU216HW,2013-03-24 10:05:00,
2013-03-24 05:30:00,28.0,25.1,29.83,South,180,1.1,1.1,89,0.00,,,0.01,WUHU216HW,2013-03-24 10:30:00,
2013-03-24 05:35:00,28.0,25.1,29.83,South,180,1.1,1.1,89,0.00,,,0.01,WUHU216HW,2013-03-24 10:35:00,
2013-03-24 06:00:00,27.2,24.6,29.83,South,180,1.8,1.8,90,0.00,,,0.01,WUHU216HW,2013-03-24 11:00:00,
2013-03-24 06:05:00,27.2,24.6,29.83,South,180,1.8,1.8,90,0.00,,,0.01,WUHU216HW,2013-03-24 11:05:00,
2013-03-24 06:30:00,26.9,24.0,29.85,South,180,3.4,3.4,89,0.00,,,0.01,WUHU216HW,2013-03-24 11:30:00,
2013-03-24 06:35:00,26.9,24.0,29.85,South,180,3.4,3.4,89,0.00,,,0.01,WUHU216HW,2013-03-24 11:35:00,
2013-03-24 06:59:00,26.7,24.1,29.86,South,180,2.5,2.5,90,0.00,,,0.01,WUHU216HW,2013-03-24 11:59:00,
2013-03-24 07:00:00,26.7,24.1,29.86,South,180,2.5,2.5,90,0.00,,,0.01,WUHU216HW,2013-03-24 12:00:00,
2013-03-24 07:05:00,26.7,24.1,29.86,South,180,2.5,2.5,90,0.00,,,0.01,WUHU216HW,2013-03-24 12:05:00,
2013-03-24 07:30:00,26.5,23.7,29.87,South,180,1.1,1.1,89,0.00,,,0.01,WUHU216HW,2013-03-24 12:30:00,
2013-03-24 07:35:00,26.5,23.7,29.87,South,180,1.1,1.1,89,0.00,,,0.01,WUHU216HW,2013-03-24 12:35:00,
2013-03-24 07:59:00,26.9,24.0,29.88,South,180,1.1,1.1,89,0.00,,,0.01,WUHU216HW,2013-03-24 12:59:00,
2013-03-24 08:00:00,26.9,24.0,29.88,South,180,1.1,1.1,89,0.00,,,0.01,WUHU216HW,2013-03-24 13:00:00,
2013-03-24 08:05:00,26.9,24.0,29.88,South,180,1.1,1.1,89,0.00,,,0.01,WUHU216HW,2013-03-24 13:05:00,
2013-03-24 08:30:00,26.9,23.8,29.89,South,180,1.1,1.1,88,0.00,,,0.01,WUHU216HW,2013-03-24 13:30:00,
2013-03-24 08:35:00,26.9,23.8,29.89,South,180,1.1,1.1,88,0.00,,,0.01,WUHU216HW,2013-03-24 13:35:00,
2013-03-24 08:59:00,26.5,23.4,29.90,South,180,1.1,1.1,88,0.00,,,0.01,WUHU216HW,2013-03-24 13:59:00,
2013-03-24 09:00:00,26.5,23.4,29.90,South,180,1.1,1.1,88,0.00,,,0.01,WUHU216HW,2013-03-24 14:00:00,
2013-03-24 09:05:00,26.5,23.4,29.90,South,180,1.1,1.1,88,0.00,,,0.01,WUHU216HW,2013-03-24 14:05:00,
2013-03-24 09:30:00,26.9,23.5,29.90,South,180,2.0,2.0,87,0.00,,,0.01,WUHU216HW,2013-03-24 14:30:00,
2013-03-24 09:35:00,26.9,23.5,29.90,South,180,2.0,2.0,87,0.00,,,0.01,WUHU216HW,2013-03-24 14:35:00,
2013-03-24 09:59:00,26.9,23.5,29.91,South,180,2.7,2.7,87,0.00,,,0.01,WUHU216HW,2013-03-24 14:59:00,
2013-03-24 10:00:00,26.9,23.5,29.91,South,180,2.7,2.7,87,0.00,,,0.01,WUHU216HW,2013-03-24 15:00:00,
2013-03-24 10:05:00,26.9,23.5,29.91,South,180,2.7,2.7,87,0.00,,,0.01,WUHU216HW,2013-03-24 15:05:00,
2013-03-24 10:30:00,26.9,23.0,29.92,South,180,4.0,4.0,85,0.00,,,0.01,WUHU216HW,2013-03-24 15:30:00,
2013-03-24 10:35:00,26.9,23.0,29.92,South,180,4.0,4.0,85,0.00,,,0.01,WUHU216HW,2013-03-24 15:35:00,
2013-03-24 10:59:00,27.2,23.0,29.92,South,180,3.4,3.4,84,0.00,,,0.01,WUHU216HW,2013-03-24 15:59:00,
2013-03-24 11:00:00,27.2,23.0,29.92,South,180,3.4,3.4,84,0.00,,,0.01,WUHU216HW,2013-03-24 16:00:00,
2013-03-24 11:05:00,27.2,23.0,29.92,South,180,3.4,3.4,84,0.00,,,0.01,WUHU216HW,2013-03-24 16:05:00,
2013-03-24 11:30:00,27.6,23.1,29.93,South,180,4.0,4.0,83,0.00,,,0.01,WUHU216HW,2013-03-24 16:30:00,
2013-03-24 11:35:00,27.6,23.1,29.93,South,180,4.0,4.0,83,0.00,,,0.01,WUHU216HW,2013-03-24 16:35:00,
2013-03-24 11:59:00,27.8,22.7,29.94,South,180,4.7,4.7,81,0.00,,,0.01,WUHU216HW,2013-03-24 16:59:00,
2013-03-24 12:00:00,27.8,22.7,29.94,South,180,4.7,4.7,81,0.00,,,0.01,WUHU216HW,2013-03-24 17:00:00,
2013-03-24 12:05:00,27.8,22.7,29.94,South,180,4.7,4.7,81,0.00,,,0.01,WUHU216HW,2013-03-24 17:05:00,
2013-03-24 12:30:00,28.3,22.6,29.94,South,180,3.8,3.8,79,0.00,,,0.01,WUHU216HW,2013-03-24 17:30:00,
2013-03-24 12:35:00,28.3,22.6,29.94,South,180,3.8,3.8,79,0.00,,,0.01,WUHU216HW,2013-03-24 17:35:00,
2013-03-24 12:59:00,29.0,23.3,29.94,South,180,4.9,4.9,79,0.01,,,0.01,WUHU216HW,2013-03-24 17:59:00,
2013-03-24 13:00:00,29.0,23.3,29.94,South,180,4.9,4.9,79,0.01,,,0.01,WUHU216HW,2013-03-24 18:00:00,
2013-03-24 13:05:00,29.0,23.3,29.94,South,180,4.9,4.9,79,0.01,,,0.01,WUHU216HW,2013-03-24 18:05:00,
2013-03-24 13:30:00,30.8,25.4,29.94,South,180,3.6,3.6,80,0.02,,,0.02,WUHU216HW,2013-03-24 18:30:00,
2013-03-24 13:35:00,30.8,25.4,29.94,South,180,3.6,3.6,80,0.02,,,0.02,WUHU216HW,2013-03-24 18:35:00,
2013-03-24 13:59:00,30.8,24.2,29.94,North,0,2.9,2.9,76,0.02,,,0.03,WUHU216HW,2013-03-24 18:59:00,
2013-03-24 14:00:00,30.8,24.2,29.94,North,0,2.9,2.9,76,0.02,,,0.03,WUHU216HW,2013-03-24 19:00:00,
2013-03-24 14:05:00,30.8,24.2,29.94,North,0,2.9,2.9,76,0.02,,,0.03,WUHU216HW,2013-03-24 19:05:00,
2013-03-24 14:30:00,31.9,24.3,29.95,NW,315,5.4,5.4,73,0.03,,,0.04,WUHU216HW,2013-03-24 19:30:00,
2013-03-24 14:35:00,31.9,24.3,29.95,NW,315,5.4,5.4,73,0.03,,,0.04,WUHU216HW,2013-03-24 19:35:00,
2013-03-24 14:59:00,30.5,22.9,29.95,NNE,23,4.5,4.5,73,0.03,,,0.06,WUHU216HW,2013-03-24 19:59:00,
2013-03-24 15:00:00,30.5,22.9,29.95,NNE,23,4.5,4.5,73,0.03,,,0.06,WUHU216HW,2013-03-24 20:00:00,
2013-03-24 15:05:00,30.5,22.9,29.95,NNE,23,4.5,4.5,73,0.03,,,0.06,WUHU216HW,2013-03-24 20:05:00,
2013-03-24 15:30:00,29.8,22.2,29.96,North,0,3.4,3.4,73,0.02,,,0.07,WUHU216HW,2013-03-24 20:30:00,
2013-03-24 15:35:00,29.8,22.2,29.96,North,0,3.4,3.4,73,0.02,,,0.07,WUHU216HW,2013-03-24 20:35:00,
2013-03-24 15:59:00,29.0,21.8,29.96,NW,315,4.0,4.0,74,0.01,,,0.08,WUHU216HW,2013-03-24 20:59:00,
2013-03-24 16:00:00,29.0,21.8,29.96,NW,315,4.0,4.0,74,0.01,,,0.08,WUHU216HW,2013-03-24 21:00:00,
2013-03-24 16:05:00,29.0,21.8,29.96,NW,315,4.0,4.0,74,0.01,,,0.08,WUHU216HW,2013-03-24 21:05:00,
2013-03-24 16:30:00,28.9,21.4,29.97,NW,315,6.0,6.0,73,0.01,,,0.08,WUHU216HW,2013-03-24 21:30:00,
2013-03-24 16:35:00,28.9,21.4,29.97,NW,315,6.0,6.0,73,0.01,,,0.08,WUHU216HW,2013-03-24 21:35:00,
2013-03-24 17:00:00,28.5,21.0,29.98,NW,315,6.9,6.9,73,0.01,,,0.09,WUHU216HW,2013-03-24 22:00:00,
2013-03-24 17:05:00,28.5,21.0,29.98,NW,315,6.9,6.9,73,0.01,,,0.09,WUHU216HW,2013-03-24 22:05:00,
2013-03-24 17:30:00,28.3,21.1,29.99,NNW,338,2.2,2.2,74,0.00,,,0.09,WUHU216HW,2013-03-24 22:30:00,
2013-03-24 17:35:00,28.3,21.1,29.99,NNW,338,2.2,2.2,74,0.00,,,0.09,WUHU216HW,2013-03-24 22:35:00,
2013-03-24 17:49:00,27.8,20.3,29.99,NNW,338,4.5,4.5,73,0.00,,,0.09,WUHU216HW,2013-03-24 22:49:00,
2013-03-24 17:54:00,27.8,20.3,29.99,South,180,4.7,8.1,73,0.00,,,0.09,WUHU216HW,2013-03-24 22:54:00,
2013-03-24 17:59:00,27.8,20.6,29.99,North,0,4.0,8.1,74,0.00,,,0.09,WUHU216HW,2013-03-24 22:59:00,
2013-03-24 18:00:00,27.8,20.6,29.99,WSW,248,4.7,4.7,74,0.00,,,0.09,WUHU216HW,2013-03-24 23:00:00,
2013-03-24 18:04:00,27.8,20.6,29.99,WSW,248,4.7,6.3,74,0.00,,,0.09,WUHU216HW,2013-03-24 23:04:00,
2013-03-24 18:09:00,27.8,20.6,29.99,WSW,248,4.7,4.7,74,0.00,,,0.09,WUHU216HW,2013-03-24 23:09:00,
2013-03-24 18:30:00,27.6,19.8,30.01,North,0,7.6,7.6,72,0.00,,,0.09,WUHU216HW,2013-03-24 23:30:00,
2013-03-24 18:35:00,27.6,19.8,30.01,North,0,7.6,7.6,72,0.00,,,0.09,WUHU216HW,2013-03-24 23:35:00,
2013-03-24 19:00:00,27.6,19.8,30.02,NW,315,5.4,5.4,72,0.00,,,0.09,WUHU216HW,2013-03-25 00:00:00,
2013-03-24 19:05:00,27.6,19.8,30.02,NW,315,5.4,5.4,72,0.00,,,0.09,WUHU216HW,2013-03-25 00:05:00,
2013-03-24 19:30:00,26.9,19.4,30.03,WNW,293,3.6,3.6,73,0.00,,,0.09,WUHU216HW,2013-03-25 00:30:00,
2013-03-24 19:35:00,26.9,19.4,30.03,WNW,293,3.6,3.6,73,0.00,,,0.09,WUHU216HW,2013-03-25 00:35:00,
2013-03-24 20:00:00,25.8,19.3,30.04,NW,315,4.7,4.7,76,0.00,,,0.09,WUHU216HW,2013-03-25 01:00:00,
2013-03-24 20:05:00,25.8,19.3,30.04,NW,315,4.7,4.7,76,0.00,,,0.09,WUHU216HW,2013-03-25 01:05:00,
2013-03-24 20:30:00,25.1,18.3,30.04,NW,315,2.7,2.7,75,0.00,,,0.09,WUHU216HW,2013-03-25 01:30:00,
2013-03-24 20:35:00,25.1,18.3,30.04,NW,315,2.7,2.7,75,0.00,,,0.09,WUHU216HW,2013-03-25 01:35:00,
2013-03-24 21:00:00,24.5,18.0,30.05,NW,315,4.7,4.7,76,0.00,,,0.09,WUHU216HW,2013-03-25 02:00:00,
2013-03-24 21:05:00,24.5,18.0,30.05,NW,315,4.7,4.7,76,0.00,,,0.09,WUHU216HW,2013-03-25 02:05:00,
2013-03-24 21:30:00,23.8,17.7,30.06,NW,315,1.6,1.6,77,0.00,,,0.09,WUHU216HW,2013-03-25 02:30:00,
2013-03-24 21:35:00,23.8,17.7,30.06,NW,315,1.6,1.6,77,0.00,,,0.09,WUHU216HW,2013-03-25 02:35:00,
2013-03-24 22:00:00,23.1,17.0,30.07,NW,315,1.1,1.1,77,0.00,,,0.09,WUHU216HW,2013-03-25 03:00:00,
2013-03-24 22:05:00,23.1,17.0,30.07,NW,315,1.1,1.1,77,0.00,,,0.09,WUHU216HW,2013-03-25 03:05:00,
2013-03-24 22:30:00,22.6,16.5,30.07,NNW,338,0.2,0.2,77,0.00,,,0.09,WUHU216HW,2013-03-25 03:30:00,
2013-03-24 22:35:00,22.6,16.5,30.07,NNW,338,0.2,0.2,77,0.00,,,0.09,WUHU216HW,2013-03-25 03:35:00,
2013-03-24 23:00:00,22.0,15.6,30.07,NW,315,0.7,0.7,76,0.00,,,0.09,WUHU216HW,2013-03-25 04:00:00,
2013-03-24 23:05:00,22.0,15.6,30.07,NW,315,0.7,0.7,76,0.00,,,0.09,WUHU216HW,2013-03-25 04:05:00,
2013-03-24 23:30:00,21.5,14.8,30.06,West,270,0.4,0.4,75,0.00,,,0.09,WUHU216HW,2013-03-25 04:30:00,
2013-03-24 23:35:00,21.5,14.8,30.06,West,270,0.4,0.4,75,0.00,,,0.09,WUHU216HW,2013-03-25 04:35:00,